Time;durP1;ratioP1;P1;durP2;ratioP2;P2;SDS_P1;SDS_P2;PMS_P1;PMS_P2;Temp;Humidity;BMP_temperature;BMP_pressure;BME280_temperature;BME280_humidity;BME280_pressure;Samples;Min_cycle;Max_cycle;Signal;HPM_P1;HPM_P2
2022/11/02 00:00:43;;;;;;;51.05;8.65;;;;;;;7.71;100.00;98870.34;2631456;28;20044;-90
2022/11/02 00:02:17;;;;;;;23.98;7.00;;;;;;;7.77;100.00;98875.47;2631225;28;20089;-88
2022/11/02 00:03:32;;;;;;;10.48;6.55;;;;;;;7.97;100.00;98871.84;2631343;28;20121;-89
2022/11/02 00:04:48;;;;;;;12.65;6.65;;;;;;;7.77;100.00;98866.81;2631201;28;20043;-89
2022/11/02 00:06:04;;;;;;;23.23;7.30;;;;;;;7.63;100.00;98866.94;2631276;28;20075;-89
2022/11/02 00:07:19;;;;;;;12.15;7.43;;;;;;;7.59;100.00;98857.44;2631328;28;20089;-89
2022/11/02 00:08:35;;;;;;;22.55;8.48;;;;;;;7.59;100.00;98860.03;2631204;28;20494;-89
2022/11/02 00:09:50;;;;;;;99.15;9.40;;;;;;;7.52;100.00;98863.56;2631341;28;20044;-89
2022/11/02 00:11:06;;;;;;;24.83;7.57;;;;;;;7.72;100.00;98861.66;2631407;28;20055;-88
2022/11/02 00:12:22;;;;;;;15.15;6.90;;;;;;;7.75;100.00;98869.44;2631180;28;20047;-88
2022/11/02 00:13:37;;;;;;;74.05;10.93;;;;;;;7.81;100.00;98868.50;2631424;28;20044;-89
2022/11/02 00:14:53;;;;;;;17.17;7.07;;;;;;;7.81;100.00;98862.41;2631163;28;20048;-89
2022/11/02 00:16:13;;;;;;;10.18;6.38;;;;;;;7.80;100.00;98856.34;2631519;28;20059;-90
2022/11/02 00:17:29;;;;;;;14.13;6.28;;;;;;;7.96;100.00;98866.63;2631477;28;20052;-89
2022/11/02 00:18:47;;;;;;;12.15;7.10;;;;;;;8.04;100.00;98862.19;2631147;28;20055;-89
2022/11/02 00:20:05;;;;;;;12.93;6.95;;;;;;;7.97;100.00;98863.13;2632804;28;20056;-89
2022/11/02 00:21:22;;;;;;;15.48;7.50;;;;;;;7.87;100.00;98864.97;2641659;28;20039;-89
2022/11/02 00:22:38;;;;;;;19.27;6.53;;;;;;;8.03;100.00;98873.47;2641633;28;20054;-90
2022/11/02 00:23:57;;;;;;;16.60;6.22;;;;;;;8.01;100.00;98873.53;2641451;28;20062;-90
2022/11/02 00:25:16;;;;;;;53.33;8.30;;;;;;;8.02;100.00;98867.41;2641308;28;20138;-89
2022/11/02 00:26:33;;;;;;;18.90;6.50;;;;;;;7.80;100.00;98876.31;2641313;28;20051;-90
2022/11/02 00:27:49;;;;;;;39.58;7.68;;;;;;;7.73;100.00;98871.19;2641260;28;20044;-89
2022/11/02 00:29:06;;;;;;;110.03;9.15;;;;;;;7.43;100.00;98873.19;2641295;28;20528;-90
2022/11/02 00:30:21;;;;;;;104.60;9.43;;;;;;;7.33;100.00;98874.13;2640673;28;20071;-89
2022/11/02 00:31:37;;;;;;;60.20;7.45;;;;;;;7.40;100.00;98869.75;2641401;28;20043;-89
2022/11/02 00:32:53;;;;;;;22.42;7.03;;;;;;;7.57;100.00;98877.44;2641249;28;20051;-89
2022/11/02 00:34:08;;;;;;;10.57;6.40;;;;;;;7.63;100.00;98873.03;2641083;28;20509;-89
2022/11/02 00:35:24;;;;;;;14.13;6.45;;;;;;;7.76;100.00;98878.97;2641307;28;20070;-89
2022/11/02 00:36:39;;;;;;;9.98;6.28;;;;;;;7.84;100.00;98873.69;2641371;28;20071;-89
2022/11/02 00:37:55;;;;;;;20.10;6.38;;;;;;;7.76;100.00;98878.97;2640725;28;20073;-90
2022/11/02 00:39:11;;;;;;;9.93;6.43;;;;;;;7.93;100.00;98875.31;2641417;28;20058;-89
2022/11/02 00:40:27;;;;;;;10.05;6.25;;;;;;;8.04;100.00;98877.84;2641354;28;20043;-89
2022/11/02 00:41:42;;;;;;;23.58;6.47;;;;;;;8.10;100.00;98879.50;2641180;28;20046;-89
2022/11/02 00:42:58;;;;;;;10.77;6.60;;;;;;;8.03;100.00;98874.34;2641283;28;20044;-89
2022/11/02 00:44:14;;;;;;;29.33;6.95;;;;;;;8.01;100.00;98878.72;2641240;28;20551;-89
2022/11/02 00:45:30;;;;;;;14.68;6.25;;;;;;;7.62;100.00;98875.63;2641196;28;20047;-89
2022/11/02 00:46:45;;;;;;;10.93;7.07;;;;;;;7.87;100.00;98878.00;2641049;28;20055;-89
2022/11/02 00:48:01;;;;;;;11.43;6.10;;;;;;;8.05;100.00;98875.19;2641275;28;20603;-89
2022/11/02 00:49:16;;;;;;;48.13;7.78;;;;;;;7.94;100.00;98876.22;2641300;28;20047;-89
2022/11/02 00:50:32;;;;;;;27.50;6.85;;;;;;;8.01;100.00;98876.13;2641504;28;20047;-89
2022/11/02 00:51:47;;;;;;;16.60;7.50;;;;;;;8.28;100.00;98881.03;2634954;28;20083;-89
2022/11/02 00:53:03;;;;;;;30.33;7.00;;;;;;;8.29;100.00;98875.81;2630860;28;20149;-89
2022/11/02 00:54:19;;;;;;;21.33;7.57;;;;;;;8.22;100.00;98881.97;2630785;28;20118;-89
2022/11/02 00:55:34;;;;;;;15.48;6.30;;;;;;;8.20;100.00;98881.13;2629863;28;20044;-90
2022/11/02 00:56:50;;;;;;;17.35;5.95;;;;;;;8.29;100.00;98886.25;2630556;28;20051;-89
2022/11/02 00:58:05;;;;;;;23.40;6.53;;;;;;;8.20;100.00;98884.63;2631001;28;20113;-88
2022/11/02 00:59:21;;;;;;;17.30;6.47;;;;;;;8.14;100.00;98884.66;2630960;28;20056;-89
2022/11/02 01:00:36;;;;;;;13.93;6.60;;;;;;;8.05;100.00;98883.03;2630745;28;20052;-89
2022/11/02 01:01:52;;;;;;;21.05;6.72;;;;;;;8.13;100.00;98879.50;2631010;28;20059;-88
2022/11/02 01:03:07;;;;;;;19.15;6.53;;;;;;;7.96;100.00;98883.16;2630877;28;20096;-90
2022/11/02 01:04:23;;;;;;;10.07;6.05;;;;;;;7.99;100.00;98875.28;2630894;28;20059;-89
2022/11/02 01:05:39;;;;;;;19.40;6.72;;;;;;;8.06;100.00;98874.31;2630781;28;20048;-89
2022/11/02 01:06:54;;;;;;;13.85;6.65;;;;;;;8.04;100.00;98873.47;2630798;28;20541;-89
2022/11/02 01:08:10;;;;;;;18.45;6.60;;;;;;;8.01;100.00;98875.25;2631060;28;20075;-89
2022/11/02 01:09:26;;;;;;;22.75;6.78;;;;;;;8.16;100.00;98876.84;2631013;28;20052;-89
2022/11/02 01:10:41;;;;;;;23.20;6.22;;;;;;;8.20;100.00;98884.63;2631229;28;20044;-89
2022/11/02 01:11:57;;;;;;;26.42;6.20;;;;;;;8.11;100.00;98882.09;2633500;28;20059;-88
2022/11/02 01:13:12;;;;;;;25.70;6.65;;;;;;;8.03;100.00;98876.97;2641512;28;20047;-89
2022/11/02 01:14:28;;;;;;;28.85;6.47;;;;;;;7.99;100.00;98879.63;2641159;28;20055;-88
2022/11/02 01:15:43;;;;;;;11.25;6.05;;;;;;;8.16;100.00;98887.28;2641414;28;20470;-89
2022/11/02 01:16:59;;;;;;;14.95;6.78;;;;;;;8.39;100.00;98879.19;2641502;28;20048;-89
2022/11/02 01:18:15;;;;;;;18.80;6.95;;;;;;;8.50;100.00;98873.84;2641443;28;20546;-89
2022/11/02 01:19:30;;;;;;;19.00;6.63;;;;;;;8.45;100.00;98883.47;2630240;28;20046;-89
2022/11/02 01:20:46;;;;;;;22.70;6.57;;;;;;;8.38;100.00;98881.78;2634565;28;20048;-89
2022/11/02 01:22:01;;;;;;;25.40;6.68;;;;;;;8.43;100.00;98878.25;2641318;28;20048;-89
2022/11/02 01:23:17;;;;;;;9.80;6.47;;;;;;;8.29;100.00;98868.00;2641117;28;20058;-89
2022/11/02 01:24:32;;;;;;;40.92;8.02;;;;;;;8.36;100.00;98868.78;2641131;28;20181;-89
2022/11/02 01:25:48;;;;;;;35.35;8.10;;;;;;;8.22;100.00;98870.69;2641125;28;20587;-89
2022/11/02 01:27:03;;;;;;;37.15;8.85;;;;;;;8.32;100.00;98873.16;2641407;28;20044;-89
2022/11/02 01:28:19;;;;;;;26.40;8.05;;;;;;;8.41;100.00;98866.13;2641309;28;20085;-89
2022/11/02 01:29:35;;;;;;;24.65;8.18;;;;;;;8.29;100.00;98867.13;2641371;28;20046;-89
2022/11/02 01:30:50;;;;;;;28.30;7.85;;;;;;;8.02;100.00;98876.97;2641466;28;20047;-90
2022/11/02 01:32:06;;;;;;;31.08;8.75;;;;;;;8.16;100.00;98866.41;2641303;28;20040;-89
2022/11/02 01:33:21;;;;;;;20.00;7.80;;;;;;;8.17;100.00;98879.44;2641381;28;20432;-90
2022/11/02 01:34:37;;;;;;;34.33;9.00;;;;;;;8.30;100.00;98872.31;2630069;28;20079;-89
2022/11/02 01:35:53;;;;;;;33.63;8.82;;;;;;;8.26;100.00;98872.38;2634511;28;20048;-89
2022/11/02 01:37:09;;;;;;;38.15;9.75;;;;;;;8.27;100.00;98869.75;2641534;28;20051;-89
2022/11/02 01:38:24;;;;;;;25.02;8.40;;;;;;;8.11;100.00;98876.03;2641422;28;20051;-89
2022/11/02 01:39:40;;;;;;;24.77;8.25;;;;;;;8.19;100.00;98874.19;2641071;28;20056;-89
2022/11/02 01:40:56;;;;;;;26.25;8.52;;;;;;;8.02;100.00;98867.41;2641364;28;20047;-89
2022/11/02 01:42:38;;;;;;;40.05;10.13;;;;;;;8.16;100.00;98862.03;2641045;28;20055;-89
2022/11/02 01:43:57;;;;;;;27.48;8.52;;;;;;;8.26;100.00;98861.94;2636220;28;20570;-89
2022/11/02 01:45:13;;;;;;;34.70;8.23;;;;;;;8.24;100.00;98866.31;2641014;28;20108;-89
2022/11/02 01:46:38;;;;;;;35.58;7.65;;;;;;;8.05;100.00;98863.94;2641153;28;20051;-88
2022/11/02 01:47:55;;;;;;;38.00;7.25;;;;;;;7.93;100.00;98859.69;2641199;28;20043;-89
2022/11/02 01:49:16;;;;;;;30.02;7.18;;;;;;;7.75;100.00;98868.56;2641224;28;20383;-91
2022/11/02 01:50:37;;;;;;;25.05;6.55;;;;;;;7.94;100.00;98871.84;2642939;28;20039;-91
2022/11/02 01:52:20;;;;;;;21.00;6.28;;;;;;;8.06;100.00;98866.50;2643044;28;20047;-91
2022/11/02 01:53:39;;;;;;;12.15;5.75;;;;;;;8.06;100.00;98870.88;2643189;28;20591;-89
2022/11/02 01:55:12;;;;;;;24.75;6.70;;;;;;;8.04;100.00;98868.25;2642898;28;20039;-90
2022/11/02 01:56:30;;;;;;;;;;;;;;;8.02;100.00;98862.22;2643880;28;20486;-90
2022/11/02 01:57:54;;;;;;;23.08;6.07;;;;;;;8.04;100.00;98865.66;2643278;28;20399;-90
2022/11/02 01:59:16;;;;;;;21.20;5.70;;;;;;;8.01;100.00;98867.44;2643099;28;20047;-90
2022/11/02 02:00:32;;;;;;;13.20;5.35;;;;;;;7.94;100.00;98871.84;2643248;28;20073;-90
2022/11/02 02:01:48;;;;;;;17.33;5.93;;;;;;;8.07;100.00;98867.38;2643099;28;20052;-90
2022/11/02 02:03:15;;;;;;;15.40;5.80;;;;;;;8.12;100.00;98862.13;2642610;28;20206;-90
2022/11/02 02:04:32;;;;;;;18.45;5.90;;;;;;;7.97;100.00;98861.41;2642435;28;20075;-90
2022/11/02 02:05:55;;;;;;;14.27;6.30;;;;;;;7.82;100.00;98858.94;2642551;28;20043;-90
2022/11/02 02:07:12;;;;;;;10.90;6.50;;;;;;;7.94;100.00;98864.03;2642802;28;20052;-90
2022/11/02 02:08:30;;;;;;;15.18;5.82;;;;;;;7.76;100.00;98865.94;2631211;28;20052;-89
2022/11/02 02:09:46;;;;;;;8.65;5.57;;;;;;;8.01;100.00;98863.09;2636309;28;20044;-90
2022/11/02 02:11:01;;;;;;;9.00;5.88;;;;;;;8.13;100.00;98854.25;2642813;28;20047;-90
2022/11/02 02:12:18;;;;;;;9.23;5.93;;;;;;;8.12;100.00;98857.75;2642491;28;20056;-89
2022/11/02 02:13:34;;;;;;;19.45;6.07;;;;;;;8.12;100.00;98857.75;2642738;28;20416;-89
2022/11/02 02:14:51;;;;;;;11.15;5.80;;;;;;;8.12;100.00;98860.34;2642502;28;20044;-90
2022/11/02 02:16:16;;;;;;;11.82;5.68;;;;;;;7.70;100.00;98858.19;2642644;28;20390;-90
2022/11/02 02:17:58;;;;;;;13.18;5.60;;;;;;;7.86;100.00;98856.28;2642922;28;20477;-89
2022/11/02 02:19:39;;;;;;;11.45;5.88;;;;;;;8.04;100.00;98860.44;2642571;28;20570;-89
2022/11/02 02:21:29;;;;;;;12.98;5.22;;;;;;;8.08;100.00;98858.66;2603786;28;20415;-89
2022/11/02 02:23:22;;;;;;;15.85;6.53;;;;;;;8.22;100.00;98858.50;2642321;28;20093;-89
2022/11/02 02:24:56;;;;;;;15.30;5.80;;;;;;;8.12;100.00;98859.50;2642301;28;20043;-89
2022/11/02 02:26:30;;;;;;;13.57;5.70;;;;;;;8.06;100.00;98856.06;2642556;28;20055;-89
2022/11/02 02:27:52;;;;;;;8.23;5.55;;;;;;;8.13;100.00;98849.03;2642815;28;20051;-89
2022/11/02 02:29:16;;;;;;;14.43;6.03;;;;;;;7.91;100.00;98854.50;2642475;28;20062;-90
2022/11/02 02:30:40;;;;;;;8.98;5.57;;;;;;;7.99;100.00;98858.75;2642729;28;20510;-90
2022/11/02 02:32:08;;;;;;;12.57;5.75;;;;;;;7.92;100.00;98855.34;2642758;28;20474;-90
2022/11/02 02:33:44;;;;;;;11.52;5.95;;;;;;;8.01;100.00;98854.38;2642765;28;20047;-90
2022/11/02 02:35:27;;;;;;;13.85;6.57;;;;;;;7.97;100.00;98853.59;2642681;28;20497;-89
2022/11/02 02:36:55;;;;;;;9.65;6.00;;;;;;;8.01;100.00;98855.25;2642537;28;20074;-90
2022/11/02 02:38:20;;;;;;;18.05;6.25;;;;;;;7.70;100.00;98857.31;2642814;28;20433;-90
2022/11/02 02:39:49;;;;;;;30.58;6.53;;;;;;;7.82;100.00;98853.72;2642575;28;20047;-90
2022/11/02 02:41:13;;;;;;;10.57;5.93;;;;;;;8.01;100.00;98851.78;2642697;28;20402;-90
2022/11/02 02:42:38;;;;;;;14.07;6.55;;;;;;;8.10;100.00;98853.41;2642880;28;20553;-90
2022/11/02 02:43:56;;;;;;;10.88;5.90;;;;;;;7.97;100.00;98856.19;2642592;28;20044;-90
2022/11/02 02:45:45;;;;;;;14.38;5.78;;;;;;;7.98;100.00;98855.31;2642902;28;20184;-90
2022/11/02 02:47:08;;;;;;;9.52;5.47;;;;;;;7.63;100.00;98852.19;2642337;28;20048;-90
2022/11/02 02:48:25;;;;;;;14.40;6.05;;;;;;;7.44;100.00;98855.81;2642609;28;20497;-89
2022/11/02 02:49:47;;;;;;;11.88;5.95;;;;;;;7.19;100.00;98859.47;2642275;28;20069;-90
2022/11/02 02:51:15;;;;;;;16.20;6.35;;;;;;;7.35;100.00;98864.56;2642453;28;20048;-90
2022/11/02 02:52:34;;;;;;;15.13;6.63;;;;;;;6.99;100.00;98861.38;2642650;28;20063;-88
2022/11/02 02:53:57;;;;;;;15.80;7.47;;;;;;;7.14;100.00;98856.06;2642454;28;20047;-89
2022/11/02 02:55:17;;;;;;;10.90;6.82;;;;;;;7.28;100.00;98865.50;2642511;28;20440;-89
2022/11/02 02:56:40;;;;;;;19.25;7.15;;;;;;;7.31;100.00;98860.25;2642390;28;20406;-89
2022/11/02 02:57:58;;;;;;;21.15;8.80;;;;;;;7.46;100.00;98865.34;2642511;28;20081;-90
2022/11/02 02:59:28;;;;;;;46.45;9.40;;;;;;;7.66;100.00;98871.25;2642397;28;20048;-90
2022/11/02 03:00:44;;;;;;;37.38;8.70;;;;;;;7.18;100.00;98859.47;2641984;28;20047;-88
2022/11/02 03:01:59;;;;;;;32.78;9.27;;;;;;;7.45;100.00;98863.63;2642492;28;20474;-89
2022/11/02 03:03:19;;;;;;;26.52;10.05;;;;;;;7.42;100.00;98871.47;2642363;28;20047;-89
2022/11/02 03:04:35;;;;;;;25.25;8.82;;;;;;;7.19;100.00;98869.91;2642187;28;20040;-89
2022/11/02 03:06:15;;;;;;;40.63;10.73;;;;;;;7.43;100.00;98875.81;2642316;28;20085;-90
2022/11/02 03:07:33;;;;;;;20.25;8.50;;;;;;;7.32;100.00;98875.00;2642554;28;20409;-89
2022/11/02 03:09:01;;;;;;;20.48;9.68;;;;;;;7.10;100.00;98874.31;2642430;28;20093;-89
2022/11/02 03:10:26;;;;;;;24.92;9.73;;;;;;;7.18;100.00;98872.50;2642333;28;20424;-90
2022/11/02 03:12:08;;;;;;;45.78;11.00;;;;;;;7.45;100.00;98873.16;2642493;28;20070;-90
2022/11/02 03:13:39;;;;;;;20.17;9.63;;;;;;;7.47;100.00;98874.88;2594347;28;20057;-90
2022/11/02 03:15:25;;;;;;;73.20;12.18;;;;;;;7.67;100.00;98873.84;2642221;28;20066;-90
2022/11/02 03:17:02;;;;;;;46.65;9.95;;;;;;;7.78;100.00;98877.22;2642189;28;20134;-90
2022/11/02 03:18:35;;;;;;;47.70;9.77;;;;;;;7.97;100.00;98886.59;2642091;28;20134;-90
2022/11/02 03:19:55;;;;;;;28.02;8.40;;;;;;;7.94;100.00;98890.09;2642359;28;20047;-90
2022/11/02 03:21:26;;;;;;;16.05;8.32;;;;;;;7.98;100.00;98883.09;2621275;28;20463;-90
2022/11/02 03:23:06;;;;;;;44.42;8.80;;;;;;;7.90;100.00;98889.28;2621082;28;20087;-90
2022/11/02 03:24:26;;;;;;;13.63;7.68;;;;;;;8.13;100.00;98879.50;2621230;28;20044;-90
2022/11/02 03:26:08;;;;;;;26.10;7.68;;;;;;;8.00;100.00;98886.56;2609970;28;20049;-90
2022/11/02 03:27:36;;;;;;;18.10;7.32;;;;;;;8.11;100.00;98883.88;2618249;28;20136;-89
2022/11/02 03:29:03;;;;;;;10.63;6.63;;;;;;;7.90;100.00;98881.47;2621171;28;20086;-90
2022/11/02 03:30:23;;;;;;;28.50;7.68;;;;;;;7.83;100.00;98885.00;2621107;28;20360;-90
2022/11/02 03:31:50;;;;;;;26.98;8.00;;;;;;;7.89;100.00;98884.94;2621020;28;20052;-90
2022/11/02 03:33:13;;;;;;;29.77;7.45;;;;;;;7.85;100.00;98893.66;2621240;28;20049;-90
2022/11/02 03:34:40;;;;;;;37.50;7.97;;;;;;;7.84;100.00;98886.72;2621049;28;20433;-90
2022/11/02 03:36:06;;;;;;;20.73;7.60;;;;;;;7.72;100.00;98884.22;2621032;28;20068;-90
2022/11/02 03:37:27;;;;;;;17.33;8.52;;;;;;;8.04;100.00;98888.28;2621174;28;20056;-90
2022/11/02 03:38:49;;;;;;;21.98;7.72;;;;;;;8.10;100.00;98887.31;2621195;28;20044;-90
2022/11/02 03:40:19;;;;;;;23.63;7.95;;;;;;;8.14;100.00;98889.03;2620917;28;20058;-91
2022/11/02 03:41:38;;;;;;;18.10;7.93;;;;;;;8.18;100.00;98888.13;2623241;28;20477;-90
2022/11/02 03:42:56;;;;;;;35.28;8.20;;;;;;;8.05;100.00;98883.03;2641938;28;20056;-90
2022/11/02 03:44:19;;;;;;;28.55;7.97;;;;;;;7.82;100.00;98892.81;2641907;28;20149;-90
2022/11/02 03:45:42;;;;;;;12.73;7.00;;;;;;;8.13;100.00;98889.91;2642110;28;20130;-90
2022/11/02 03:46:59;;;;;;;33.33;7.80;;;;;;;8.11;100.00;98887.31;2642349;28;20039;-90
2022/11/02 03:48:17;;;;;;;38.33;7.60;;;;;;;8.02;100.00;98903.06;2642136;28;20067;-90
2022/11/02 03:49:34;;;;;;;18.00;6.68;;;;;;;7.90;100.00;98906.66;2641842;28;20047;-90
2022/11/02 03:50:51;;;;;;;34.85;7.05;;;;;;;8.09;100.00;98901.25;2641847;28;20451;-90
2022/11/02 03:52:11;;;;;;;33.22;6.90;;;;;;;7.73;100.00;98904.19;2642116;28;20066;-90
2022/11/02 03:53:36;;;;;;;11.57;6.68;;;;;;;8.18;100.00;98903.75;2634176;28;20672;-90
2022/11/02 03:55:09;;;;;;;22.70;6.93;;;;;;;8.32;100.00;98901.88;2631275;28;20054;-90
2022/11/02 03:56:36;;;;;;;;;;;;;;;8.07;100.00;98901.28;2631834;28;20066;-90
2022/11/02 03:57:52;;;;;;;14.98;6.75;;;;;;;8.16;100.00;98901.16;2631423;28;19919;-87
2022/11/02 03:59:08;;;;;;;20.65;7.18;;;;;;;8.26;100.00;98906.28;2631747;28;20067;-88
2022/11/02 04:00:25;;;;;;;14.82;7.40;;;;;;;8.00;100.00;98904.81;2631073;28;20245;-89
2022/11/02 04:01:43;;;;;;;32.47;7.22;;;;;;;8.20;100.00;98900.28;2631625;28;20044;-89
2022/11/02 04:03:02;;;;;;;28.27;7.30;;;;;;;8.26;100.00;98904.56;2631458;28;20523;-88
2022/11/02 04:04:18;;;;;;;13.77;7.05;;;;;;;8.28;100.00;98904.53;2630404;28;20056;-88
2022/11/02 04:05:35;;;;;;;27.85;7.78;;;;;;;8.40;100.00;98898.31;2631492;28;20063;-88
2022/11/02 04:06:52;;;;;;;24.05;7.78;;;;;;;8.38;100.00;98905.28;2631063;28;20070;-88
2022/11/02 04:08:20;;;;;;;29.35;7.03;;;;;;;8.42;100.00;98909.59;2631463;28;20397;-87
2022/11/02 04:09:36;;;;;;;21.27;6.85;;;;;;;8.42;100.00;98907.84;2631294;28;20048;-88
2022/11/02 04:15:34;;;;;;;23.95;7.07;;;;;;;8.15;100.00;98907.25;2641723;28;20413;-89
2022/11/02 04:19:26;;;;;;;16.45;7.72;;;;;;;8.01;100.00;98912.63;2641165;28;20047;-89
2022/11/02 04:19:59;;;;;;;47.60;9.07;;;;;;;8.20;100.00;98912.44;2641581;28;20474;-86
2022/11/02 04:21:15;;;;;;;60.83;8.43;;;;;;;8.12;100.00;98907.28;2641484;28;20126;-87
2022/11/02 04:25:39;;;;;;;33.72;8.27;;;;;;;8.40;100.00;98900.94;2641693;28;20051;-88
2022/11/02 04:26:55;;;;;;;27.67;7.75;;;;;;;8.36;100.00;98905.31;2629636;28;20131;-88
2022/11/02 04:28:10;;;;;;;20.95;7.88;;;;;;;8.32;100.00;98909.69;2627268;28;20086;-90
2022/11/02 04:29:26;;;;;;;32.03;7.18;;;;;;;8.14;100.00;98907.28;2631140;28;20052;-90
2022/11/02 04:30:41;;;;;;;15.80;7.22;;;;;;;8.16;100.00;98911.59;2630987;28;20501;-87
2022/11/02 04:31:57;;;;;;;16.00;7.45;;;;;;;8.40;100.00;98907.00;2630917;28;20066;-90
2022/11/02 04:34:47;;;;;;;16.02;7.32;;;;;;;8.32;100.00;98914.91;2630840;28;20048;-89
2022/11/02 04:36:05;;;;;;;38.78;7.60;;;;;;;8.24;100.00;98908.94;2630783;28;20083;-89
2022/11/02 04:38:59;;;;;;;22.67;8.82;;;;;;;8.50;100.00;98910.38;2592109;28;20069;-88
2022/11/02 04:40:14;;;;;;;22.05;7.10;;;;;;;8.48;100.00;98902.56;2630655;28;20070;-88
2022/11/02 04:41:41;;;;;;;17.98;7.93;;;;;;;8.64;100.00;98909.34;2630791;28;20044;-87
2022/11/02 04:42:57;;;;;;;16.83;7.53;;;;;;;8.50;100.00;98907.78;2630750;28;20517;-87
2022/11/02 04:44:13;;;;;;;20.85;7.15;;;;;;;8.52;100.00;98908.66;2630504;28;20058;-88
2022/11/02 04:45:29;;;;;;;24.70;7.40;;;;;;;8.50;100.00;98906.91;2639010;28;20067;-89
2022/11/02 04:46:44;;;;;;;49.63;8.35;;;;;;;8.18;100.00;98911.59;2641446;28;20070;-89
2022/11/02 04:48:05;;;;;;;14.02;7.20;;;;;;;8.46;100.00;98912.16;2641341;28;20058;-88
2022/11/02 04:49:21;;;;;;;117.53;13.35;;;;;;;8.56;100.00;98914.66;2635282;28;20090;-88
2022/11/02 04:50:37;;;;;;;129.32;11.05;;;;;;;8.57;100.00;98914.66;2630882;28;20060;-88
2022/11/02 04:51:52;;;;;;;67.70;9.27;;;;;;;8.51;100.00;98913.88;2631136;28;20070;-88
2022/11/02 04:53:08;;;;;;;17.20;6.25;;;;;;;8.20;100.00;98915.91;2631089;28;20052;-90
2022/11/02 04:54:23;;;;;;;56.72;7.97;;;;;;;7.99;100.00;98917.00;2630937;28;20079;-89
2022/11/02 04:55:39;;;;;;;37.72;7.78;;;;;;;7.70;100.00;98915.53;2619785;28;20044;-89
2022/11/02 04:56:54;;;;;;;140.82;11.85;;;;;;;7.62;100.00;98909.50;2613494;28;20068;-89
2022/11/02 04:58:10;;;;;;;59.97;7.53;;;;;;;7.76;100.00;98918.06;2624038;28;20055;-88
2022/11/02 04:59:25;;;;;;;9.95;6.28;;;;;;;7.84;100.00;98924.97;2630905;28;20044;-89
2022/11/02 05:00:41;;;;;;;52.35;8.10;;;;;;;7.57;100.00;98919.13;2635587;28;20040;-89
2022/11/02 05:01:57;;;;;;;10.02;5.97;;;;;;;7.77;100.00;98918.94;2638545;28;20058;-90
2022/11/02 05:03:13;;;;;;;12.73;6.50;;;;;;;7.90;100.00;98915.34;2631012;28;20075;-90
2022/11/02 05:04:28;;;;;;;26.92;7.32;;;;;;;7.78;100.00;98916.31;2630847;28;20048;-89
2022/11/02 05:05:44;;;;;;;16.70;6.68;;;;;;;7.75;100.00;98913.75;2630925;28;20048;-89
2022/11/02 05:06:59;;;;;;;23.75;6.68;;;;;;;7.63;100.00;98919.06;2630935;28;20064;-90
2022/11/02 05:08:15;;;;;;;50.90;7.60;;;;;;;7.63;100.00;98913.84;2630870;28;20449;-90
2022/11/02 05:09:30;;;;;;;75.80;9.40;;;;;;;7.66;100.00;98912.97;2630931;28;20411;-89
2022/11/02 05:10:46;;;;;;;70.70;9.00;;;;;;;7.67;100.00;98914.69;2631033;28;20383;-90
2022/11/02 05:12:03;;;;;;;25.17;7.35;;;;;;;7.33;100.00;98914.09;2633991;28;20056;-89
2022/11/02 05:13:19;;;;;;;28.00;7.65;;;;;;;7.13;100.00;98915.94;2641217;28;20039;-89
2022/11/02 05:14:35;;;;;;;52.95;9.38;;;;;;;7.36;100.00;98918.38;2641212;28;20156;-89
2022/11/02 05:15:54;;;;;;;25.35;6.90;;;;;;;7.43;100.00;98916.59;2641409;28;20535;-89
2022/11/02 05:17:09;;;;;;;30.45;7.10;;;;;;;7.07;100.00;98907.31;2641449;28;20052;-89
2022/11/02 05:18:26;;;;;;;23.50;6.88;;;;;;;7.34;100.00;98910.59;2641421;28;20646;-89
2022/11/02 05:19:42;;;;;;;18.08;6.32;;;;;;;7.28;100.00;98909.78;2641265;28;20044;-89
2022/11/02 05:20:59;;;;;;;47.40;8.25;;;;;;;7.42;100.00;98912.28;2620637;28;20502;-89
2022/11/02 05:22:15;;;;;;;25.92;7.40;;;;;;;7.30;100.00;98913.25;2624425;28;20063;-89
2022/11/02 05:23:31;;;;;;;26.42;7.25;;;;;;;7.20;100.00;98915.03;2631111;28;20070;-90
2022/11/02 05:24:46;;;;;;;28.60;7.15;;;;;;;7.33;100.00;98913.22;2632728;28;20537;-89
2022/11/02 05:26:09;;;;;;;51.20;8.30;;;;;;;7.20;100.00;98915.91;2632735;28;20094;-89
2022/11/02 05:27:24;;;;;;;26.85;6.82;;;;;;;7.11;100.00;98921.16;2633119;28;20514;-89
2022/11/02 05:28:40;;;;;;;11.32;6.50;;;;;;;7.34;100.00;98918.41;2632620;28;20426;-89
2022/11/02 05:29:55;;;;;;;37.25;7.10;;;;;;;7.34;100.00;98922.75;2632443;28;20067;-89
2022/11/02 05:31:11;;;;;;;79.47;9.27;;;;;;;7.05;100.00;98914.28;2632750;28;20048;-90
2022/11/02 05:32:26;;;;;;;24.88;7.53;;;;;;;6.88;100.00;98924.78;2632772;28;20047;-88
2022/11/02 05:33:42;;;;;;;93.28;9.88;;;;;;;7.28;100.00;98922.81;2632556;28;20051;-89
2022/11/02 05:34:58;;;;;;;17.73;7.13;;;;;;;6.87;100.00;98920.44;2630143;28;20086;-88
2022/11/02 05:36:13;;;;;;;76.85;8.23;;;;;;;7.19;100.00;98923.69;2636829;28;20556;-88
2022/11/02 05:37:29;;;;;;;26.80;8.68;;;;;;;7.34;100.00;98926.22;2635570;28;20631;-89
2022/11/02 05:38:44;;;;;;;66.38;9.75;;;;;;;7.52;100.00;98928.69;2639223;28;20048;-89
2022/11/02 05:40:00;;;;;;;46.58;8.30;;;;;;;7.51;100.00;98934.78;2642581;28;20044;-89
2022/11/02 05:41:16;;;;;;;115.18;11.27;;;;;;;7.58;100.00;98936.47;2638391;28;20065;-89
2022/11/02 05:42:32;;;;;;;64.63;8.93;;;;;;;7.42;100.00;98928.78;2627077;28;20052;-89
2022/11/02 05:43:47;;;;;;;111.95;10.35;;;;;;;7.50;100.00;98933.94;2627826;28;20060;-89
2022/11/02 05:45:03;;;;;;;23.70;6.90;;;;;;;7.05;100.00;98931.63;2642863;28;20052;-89
2022/11/02 05:46:19;;;;;;;80.35;9.77;;;;;;;7.28;100.00;98930.63;2643202;28;20524;-88
2022/11/02 05:47:34;;;;;;;98.80;9.23;;;;;;;7.31;100.00;98936.66;2642797;28;20122;-89
2022/11/02 05:48:50;;;;;;;97.32;9.32;;;;;;;7.18;100.00;98930.66;2635588;28;20085;-89
2022/11/02 05:50:06;;;;;;;38.92;7.65;;;;;;;7.01;100.00;98930.75;2633372;28;20074;-88
2022/11/02 05:51:21;;;;;;;65.65;8.70;;;;;;;7.09;100.00;98932.47;2643020;28;20065;-89
2022/11/02 05:52:37;;;;;;;77.57;8.77;;;;;;;7.28;100.00;98933.22;2637509;28;20044;-88
2022/11/02 05:53:52;;;;;;;66.47;8.30;;;;;;;7.19;100.00;98939.31;2629709;28;20055;-88
2022/11/02 05:55:08;;;;;;;85.55;11.20;;;;;;;7.40;100.00;98932.25;2632180;28;20052;-89
2022/11/02 05:56:23;;;;;;;94.85;10.40;;;;;;;7.43;100.00;98943.53;2636194;28;20040;-89
2022/11/02 05:57:39;;;;;;;25.90;7.55;;;;;;;7.49;100.00;98940.03;2642881;28;20066;-90
2022/11/02 05:58:55;;;;;;;98.30;11.38;;;;;;;7.54;100.00;98942.56;2634397;28;20044;-89
2022/11/02 06:00:10;;;;;;;95.40;9.18;;;;;;;7.58;100.00;98936.47;2633994;28;20063;-89
2022/11/02 06:01:26;;;;;;;22.20;7.53;;;;;;;7.63;100.00;98946.00;2642618;28;20047;-89
2022/11/02 06:02:41;;;;;;;62.38;10.45;;;;;;;7.58;100.00;98942.53;2636366;28;20048;-89
2022/11/02 06:03:57;;;;;;;54.33;8.93;;;;;;;7.75;100.00;98939.81;2632161;28;20072;-89
2022/11/02 06:05:13;;;;;;;41.97;8.80;;;;;;;7.78;100.00;98944.97;2642768;28;20052;-89
2022/11/02 06:06:29;;;;;;;86.28;9.77;;;;;;;7.81;100.00;98936.28;2638254;28;20123;-89
2022/11/02 06:07:44;;;;;;;103.20;10.80;;;;;;;7.84;100.00;98941.47;2632208;28;20051;-90
2022/11/02 06:09:00;;;;;;;76.78;9.32;;;;;;;7.84;100.00;98948.44;2641093;28;20086;-89
2022/11/02 06:10:15;;;;;;;42.85;8.30;;;;;;;7.83;100.00;98954.53;2640041;28;20432;-90
2022/11/02 06:11:31;;;;;;;74.40;7.93;;;;;;;7.86;100.00;98952.72;2632053;28;20059;-90
2022/11/02 06:12:53;;;;;;;53.08;8.23;;;;;;;7.74;100.00;98956.31;2631554;28;20056;-90
2022/11/02 06:14:09;;;;;;;29.20;7.20;;;;;;;7.78;100.00;98955.41;2632189;28;20048;-90
2022/11/02 06:15:25;;;;;;;42.22;7.65;;;;;;;7.44;100.00;98954.81;2621145;28;20040;-90
2022/11/02 06:16:41;;;;;;;27.60;7.55;;;;;;;7.28;100.00;98943.66;2625604;28;20075;-90
2022/11/02 06:17:56;;;;;;;63.38;10.65;;;;;;;7.54;100.00;98955.59;2632219;28;20085;-90
2022/11/02 06:19:12;;;;;;;78.20;9.05;;;;;;;7.47;100.00;98952.16;2632076;28;20044;-89
2022/11/02 06:20:28;;;;;;;33.60;8.27;;;;;;;7.33;100.00;98954.88;2632278;28;20054;-90
2022/11/02 06:21:43;;;;;;;50.78;8.80;;;;;;;7.24;100.00;98958.41;2632169;28;20219;-89